Hlavní strana
METAR-TAF:

METAR-TAF

Letiště :

Hof, Německo

zeměpisná šířka: 50-19N, zeměpisná délka: 011-53E, výška: 567 m

Aktuální stav počasí

Zpráva byla vytvořena před 11 minutami, v 10:50 UTC
Západojihozápadní vítr 11 kt, proměnlivý mezi jihojihozápadním a západoseverozápadním
Teplota 26°C
Vlhkost vzduchu 37%
Tlak 1020 hPa
Viditelnost 10 km a více
Žádná oblačnost pod 1500 m, nevyskytují se cumulonimby.

METAR: EDQM 201050Z 25011KT 210V300 CAVOK 26/10 Q1020

Čas: 13:01 (11:01 UTC)

Předpověď počasí

Zpráva byla vytvořena před 3 hodinami a 1 minutami, v 08:00 UTC
Předpověď platná od 20 v 09 UTC do 20 v 18 UTC
Západní vítr 7 kt
Viditelnost 10 km a více
Polojasno ve výšce 3000 ft

TAF: EDQM 200800Z 2009/2018 28007KT 9999 SCT030

Stav a předpovědi počasí z více než 4 000 letišť (zprávy METAR a TAF).

Červené a žluté tečky na mapě představují dostupné meteorologické stanice.

Když kurzor umístíte na tečku, zobrazí se název stanice.

Pak kliknutím zobrazíte stav a předpověď počasí.

Chcete-li změnit mapu, kliknutím na zelené tlačítko se znaménkem +mapu přiblížíte, kliknutím na zelené tlačítko se znaménkem – mapu oddálíte a kliknutím na zelené šipky přejdete na sousední mapy.


METAR-TAF: